sensor_id;sensor_type;location;lat;lon;timestamp;pressure;altitude;pressure_sealevel;temperature
12007;BMP180;6062;47.294;12.182;2023-03-21T00:01:13;80332.00;;;4.40
12007;BMP180;6062;47.294;12.182;2023-03-21T00:03:39;80335.00;;;4.40
12007;BMP180;6062;47.294;12.182;2023-03-21T00:06:11;80332.00;;;4.40
12007;BMP180;6062;47.294;12.182;2023-03-21T00:08:38;80316.00;;;4.50
12007;BMP180;6062;47.294;12.182;2023-03-21T00:11:08;80327.00;;;4.50
12007;BMP180;6062;47.294;12.182;2023-03-21T00:13:35;80329.00;;;4.60
12007;BMP180;6062;47.294;12.182;2023-03-21T00:16:12;80321.00;;;4.60
12007;BMP180;6062;47.294;12.182;2023-03-21T00:18:42;80324.00;;;4.60
12007;BMP180;6062;47.294;12.182;2023-03-21T00:21:14;80322.00;;;4.70
12007;BMP180;6062;47.294;12.182;2023-03-21T00:23:41;80321.00;;;4.70
12007;BMP180;6062;47.294;12.182;2023-03-21T00:26:08;80319.00;;;4.70
12007;BMP180;6062;47.294;12.182;2023-03-21T00:28:39;80318.00;;;4.80
12007;BMP180;6062;47.294;12.182;2023-03-21T00:31:06;80320.00;;;4.90
12007;BMP180;6062;47.294;12.182;2023-03-21T00:33:33;80320.00;;;4.90
12007;BMP180;6062;47.294;12.182;2023-03-21T00:36:00;80312.00;;;4.90
12007;BMP180;6062;47.294;12.182;2023-03-21T00:38:27;80316.00;;;5.00
12007;BMP180;6062;47.294;12.182;2023-03-21T00:40:53;80312.00;;;5.10
12007;BMP180;6062;47.294;12.182;2023-03-21T00:43:19;80305.00;;;5.10
12007;BMP180;6062;47.294;12.182;2023-03-21T00:45:49;80297.00;;;5.20
12007;BMP180;6062;47.294;12.182;2023-03-21T00:48:16;80303.00;;;5.20
12007;BMP180;6062;47.294;12.182;2023-03-21T00:50:44;80299.00;;;5.30
12007;BMP180;6062;47.294;12.182;2023-03-21T00:53:11;80296.00;;;5.40
12007;BMP180;6062;47.294;12.182;2023-03-21T00:55:37;80292.00;;;5.40
12007;BMP180;6062;47.294;12.182;2023-03-21T00:58:04;80289.00;;;5.50
12007;BMP180;6062;47.294;12.182;2023-03-21T01:00:32;80289.00;;;5.50
12007;BMP180;6062;47.294;12.182;2023-03-21T01:02:59;80289.00;;;5.50
12007;BMP180;6062;47.294;12.182;2023-03-21T01:05:33;80274.00;;;5.60
12007;BMP180;6062;47.294;12.182;2023-03-21T01:08:20;80283.00;;;5.60
12007;BMP180;6062;47.294;12.182;2023-03-21T01:10:48;80287.00;;;5.70
12007;BMP180;6062;47.294;12.182;2023-03-21T01:13:19;80275.00;;;5.70
12007;BMP180;6062;47.294;12.182;2023-03-21T01:15:52;80290.00;;;5.80
12007;BMP180;6062;47.294;12.182;2023-03-21T01:18:22;80288.00;;;5.90
12007;BMP180;6062;47.294;12.182;2023-03-21T01:20:50;80292.00;;;5.90
12007;BMP180;6062;47.294;12.182;2023-03-21T01:23:16;80292.00;;;5.90
12007;BMP180;6062;47.294;12.182;2023-03-21T01:25:42;80288.00;;;6.00
12007;BMP180;6062;47.294;12.182;2023-03-21T01:28:09;80277.00;;;6.00
12007;BMP180;6062;47.294;12.182;2023-03-21T01:30:35;80278.00;;;6.00
12007;BMP180;6062;47.294;12.182;2023-03-21T01:33:01;80286.00;;;6.00
12007;BMP180;6062;47.294;12.182;2023-03-21T01:35:27;80275.00;;;6.00
12007;BMP180;6062;47.294;12.182;2023-03-21T01:37:52;80278.00;;;6.00
12007;BMP180;6062;47.294;12.182;2023-03-21T01:40:24;80274.00;;;6.00
12007;BMP180;6062;47.294;12.182;2023-03-21T01:42:51;80280.00;;;6.00
12007;BMP180;6062;47.294;12.182;2023-03-21T01:46:11;80278.00;;;6.00
12007;BMP180;6062;47.294;12.182;2023-03-21T01:48:49;80270.00;;;5.90
12007;BMP180;6062;47.294;12.182;2023-03-21T01:51:17;80267.00;;;5.90
12007;BMP180;6062;47.294;12.182;2023-03-21T01:53:44;80270.00;;;5.90
12007;BMP180;6062;47.294;12.182;2023-03-21T01:56:27;80263.00;;;5.90
12007;BMP180;6062;47.294;12.182;2023-03-21T01:59:00;80267.00;;;5.90
12007;BMP180;6062;47.294;12.182;2023-03-21T02:01:29;80261.00;;;5.90
12007;BMP180;6062;47.294;12.182;2023-03-21T02:03:56;80266.00;;;6.00
12007;BMP180;6062;47.294;12.182;2023-03-21T02:06:37;80263.00;;;6.00
12007;BMP180;6062;47.294;12.182;2023-03-21T02:09:11;80262.00;;;6.00
12007;BMP180;6062;47.294;12.182;2023-03-21T02:11:38;80259.00;;;6.00
12007;BMP180;6062;47.294;12.182;2023-03-21T02:14:04;80259.00;;;6.00
12007;BMP180;6062;47.294;12.182;2023-03-21T02:38:01;80242.00;;;6.00
12007;BMP180;6062;47.294;12.182;2023-03-21T02:40:42;80240.00;;;6.00
12007;BMP180;6062;47.294;12.182;2023-03-21T02:43:31;80250.00;;;6.10
12007;BMP180;6062;47.294;12.182;2023-03-21T02:51:33;80245.00;;;6.00
12007;BMP180;6062;47.294;12.182;2023-03-21T02:54:11;80243.00;;;6.00
12007;BMP180;6062;47.294;12.182;2023-03-21T02:56:39;80236.00;;;6.10
12007;BMP180;6062;47.294;12.182;2023-03-21T02:59:07;80238.00;;;6.00
12007;BMP180;6062;47.294;12.182;2023-03-21T03:01:33;80237.00;;;6.00
12007;BMP180;6062;47.294;12.182;2023-03-21T03:04:00;80230.00;;;6.00
12007;BMP180;6062;47.294;12.182;2023-03-21T03:06:42;80233.00;;;6.00
12007;BMP180;6062;47.294;12.182;2023-03-21T03:09:42;80230.00;;;6.00
12007;BMP180;6062;47.294;12.182;2023-03-21T03:12:40;80235.00;;;6.00
12007;BMP180;6062;47.294;12.182;2023-03-21T03:15:35;80231.00;;;5.90
12007;BMP180;6062;47.294;12.182;2023-03-21T03:18:19;80238.00;;;6.00
12007;BMP180;6062;47.294;12.182;2023-03-21T03:21:03;80234.00;;;5.90
12007;BMP180;6062;47.294;12.182;2023-03-21T03:23:50;80232.00;;;5.90
12007;BMP180;6062;47.294;12.182;2023-03-21T03:26:42;80228.00;;;5.90
12007;BMP180;6062;47.294;12.182;2023-03-21T03:29:15;80230.00;;;5.90
12007;BMP180;6062;47.294;12.182;2023-03-21T03:32:16;80233.00;;;6.00
12007;BMP180;6062;47.294;12.182;2023-03-21T03:34:51;80232.00;;;6.00
12007;BMP180;6062;47.294;12.182;2023-03-21T03:37:26;80231.00;;;6.00
12007;BMP180;6062;47.294;12.182;2023-03-21T03:40:02;80229.00;;;6.00
12007;BMP180;6062;47.294;12.182;2023-03-21T03:42:39;80229.00;;;6.00
12007;BMP180;6062;47.294;12.182;2023-03-21T03:45:09;80244.00;;;6.00
12007;BMP180;6062;47.294;12.182;2023-03-21T03:47:46;80240.00;;;5.90
12007;BMP180;6062;47.294;12.182;2023-03-21T03:50:28;80247.00;;;5.90
12007;BMP180;6062;47.294;12.182;2023-03-21T03:53:04;80251.00;;;5.90
12007;BMP180;6062;47.294;12.182;2023-03-21T03:55:31;80246.00;;;5.90
12007;BMP180;6062;47.294;12.182;2023-03-21T03:58:00;80246.00;;;5.90
12007;BMP180;6062;47.294;12.182;2023-03-21T04:00:32;80250.00;;;5.90
12007;BMP180;6062;47.294;12.182;2023-03-21T04:02:59;80246.00;;;5.90
12007;BMP180;6062;47.294;12.182;2023-03-21T04:05:25;80240.00;;;5.90
12007;BMP180;6062;47.294;12.182;2023-03-21T04:07:52;80244.00;;;5.90
12007;BMP180;6062;47.294;12.182;2023-03-21T04:10:20;80240.00;;;5.90
12007;BMP180;6062;47.294;12.182;2023-03-21T04:12:47;80247.00;;;5.90
12007;BMP180;6062;47.294;12.182;2023-03-21T04:15:13;80231.00;;;5.90
12007;BMP180;6062;47.294;12.182;2023-03-21T04:17:38;80235.00;;;6.00
12007;BMP180;6062;47.294;12.182;2023-03-21T04:20:05;80241.00;;;6.00
12007;BMP180;6062;47.294;12.182;2023-03-21T04:22:32;80249.00;;;6.00
12007;BMP180;6062;47.294;12.182;2023-03-21T04:24:59;80239.00;;;6.00
12007;BMP180;6062;47.294;12.182;2023-03-21T04:27:30;80251.00;;;6.00
12007;BMP180;6062;47.294;12.182;2023-03-21T04:29:58;80250.00;;;6.00
12007;BMP180;6062;47.294;12.182;2023-03-21T04:32:25;80243.00;;;6.00
12007;BMP180;6062;47.294;12.182;2023-03-21T04:34:51;80247.00;;;6.00
12007;BMP180;6062;47.294;12.182;2023-03-21T04:37:21;80251.00;;;6.00
12007;BMP180;6062;47.294;12.182;2023-03-21T04:39:49;80243.00;;;6.00
12007;BMP180;6062;47.294;12.182;2023-03-21T04:42:17;80241.00;;;6.00
12007;BMP180;6062;47.294;12.182;2023-03-21T04:44:45;80241.00;;;6.00
12007;BMP180;6062;47.294;12.182;2023-03-21T04:47:12;80238.00;;;6.00
12007;BMP180;6062;47.294;12.182;2023-03-21T04:49:38;80242.00;;;6.00
12007;BMP180;6062;47.294;12.182;2023-03-21T04:52:04;80235.00;;;6.00
12007;BMP180;6062;47.294;12.182;2023-03-21T04:54:30;80236.00;;;6.00
12007;BMP180;6062;47.294;12.182;2023-03-21T04:56:57;80235.00;;;6.00
12007;BMP180;6062;47.294;12.182;2023-03-21T04:59:23;80245.00;;;5.90
12007;BMP180;6062;47.294;12.182;2023-03-21T05:01:49;80226.00;;;5.80
12007;BMP180;6062;47.294;12.182;2023-03-21T05:04:16;80232.00;;;5.80
12007;BMP180;6062;47.294;12.182;2023-03-21T05:06:44;80237.00;;;5.70
12007;BMP180;6062;47.294;12.182;2023-03-21T05:09:12;80235.00;;;5.70
12007;BMP180;6062;47.294;12.182;2023-03-21T05:11:39;80225.00;;;5.70
12007;BMP180;6062;47.294;12.182;2023-03-21T05:14:08;80238.00;;;5.70
12007;BMP180;6062;47.294;12.182;2023-03-21T05:16:35;80223.00;;;5.80
12007;BMP180;6062;47.294;12.182;2023-03-21T05:19:03;80229.00;;;5.80
12007;BMP180;6062;47.294;12.182;2023-03-21T05:21:31;80228.00;;;5.90
12007;BMP180;6062;47.294;12.182;2023-03-21T05:24:12;80230.00;;;5.90
12007;BMP180;6062;47.294;12.182;2023-03-21T05:26:39;80232.00;;;5.90
12007;BMP180;6062;47.294;12.182;2023-03-21T05:29:06;80239.00;;;6.00
12007;BMP180;6062;47.294;12.182;2023-03-21T05:31:32;80225.00;;;6.00
12007;BMP180;6062;47.294;12.182;2023-03-21T05:33:58;80234.00;;;6.00
12007;BMP180;6062;47.294;12.182;2023-03-21T05:36:23;80232.00;;;6.10
12007;BMP180;6062;47.294;12.182;2023-03-21T05:38:49;80229.00;;;6.10
12007;BMP180;6062;47.294;12.182;2023-03-21T05:41:17;80237.00;;;6.20
12007;BMP180;6062;47.294;12.182;2023-03-21T05:43:43;80230.00;;;6.20
12007;BMP180;6062;47.294;12.182;2023-03-21T05:46:09;80232.00;;;6.30
12007;BMP180;6062;47.294;12.182;2023-03-21T05:48:36;80228.00;;;6.30
12007;BMP180;6062;47.294;12.182;2023-03-21T05:51:03;80235.00;;;6.30
12007;BMP180;6062;47.294;12.182;2023-03-21T05:53:28;80233.00;;;6.40
12007;BMP180;6062;47.294;12.182;2023-03-21T05:55:55;80229.00;;;6.50
12007;BMP180;6062;47.294;12.182;2023-03-21T05:58:21;80234.00;;;6.50
12007;BMP180;6062;47.294;12.182;2023-03-21T06:00:46;80233.00;;;6.60
12007;BMP180;6062;47.294;12.182;2023-03-21T06:03:12;80240.00;;;6.60
12007;BMP180;6062;47.294;12.182;2023-03-21T06:05:38;80245.00;;;6.70
12007;BMP180;6062;47.294;12.182;2023-03-21T06:08:04;80243.00;;;6.80
12007;BMP180;6062;47.294;12.182;2023-03-21T06:10:30;80248.00;;;6.80
12007;BMP180;6062;47.294;12.182;2023-03-21T06:12:56;80241.00;;;6.90
12007;BMP180;6062;47.294;12.182;2023-03-21T06:15:22;80245.00;;;6.90
12007;BMP180;6062;47.294;12.182;2023-03-21T06:17:47;80240.00;;;6.90
12007;BMP180;6062;47.294;12.182;2023-03-21T06:20:13;80241.00;;;6.90
12007;BMP180;6062;47.294;12.182;2023-03-21T06:22:39;80241.00;;;7.00
12007;BMP180;6062;47.294;12.182;2023-03-21T06:25:06;80241.00;;;7.00
12007;BMP180;6062;47.294;12.182;2023-03-21T06:27:33;80239.00;;;7.10
12007;BMP180;6062;47.294;12.182;2023-03-21T06:30:00;80244.00;;;7.10
12007;BMP180;6062;47.294;12.182;2023-03-21T06:32:26;80245.00;;;7.20
12007;BMP180;6062;47.294;12.182;2023-03-21T06:34:52;80242.00;;;7.30
12007;BMP180;6062;47.294;12.182;2023-03-21T06:37:19;80239.00;;;7.40
12007;BMP180;6062;47.294;12.182;2023-03-21T06:39:45;80245.00;;;7.50
12007;BMP180;6062;47.294;12.182;2023-03-21T06:42:12;80245.00;;;7.50
12007;BMP180;6062;47.294;12.182;2023-03-21T06:44:38;80254.00;;;7.60
12007;BMP180;6062;47.294;12.182;2023-03-21T06:47:04;80255.00;;;7.70
12007;BMP180;6062;47.294;12.182;2023-03-21T06:49:30;80260.00;;;7.80
12007;BMP180;6062;47.294;12.182;2023-03-21T06:51:56;80259.00;;;7.90
12007;BMP180;6062;47.294;12.182;2023-03-21T06:54:22;80261.00;;;8.00
12007;BMP180;6062;47.294;12.182;2023-03-21T06:56:48;80265.00;;;8.10
12007;BMP180;6062;47.294;12.182;2023-03-21T06:59:14;80256.00;;;8.20
12007;BMP180;6062;47.294;12.182;2023-03-21T07:01:39;80262.00;;;8.30
12007;BMP180;6062;47.294;12.182;2023-03-21T07:04:05;80270.00;;;8.40
12007;BMP180;6062;47.294;12.182;2023-03-21T07:06:31;80266.00;;;8.50
12007;BMP180;6062;47.294;12.182;2023-03-21T07:08:57;80262.00;;;8.50
12007;BMP180;6062;47.294;12.182;2023-03-21T07:11:24;80266.00;;;8.60
12007;BMP180;6062;47.294;12.182;2023-03-21T07:13:50;80268.00;;;8.70
12007;BMP180;6062;47.294;12.182;2023-03-21T07:16:18;80263.00;;;8.80
12007;BMP180;6062;47.294;12.182;2023-03-21T07:18:44;80267.00;;;8.90
12007;BMP180;6062;47.294;12.182;2023-03-21T07:21:10;80268.00;;;9.00
12007;BMP180;6062;47.294;12.182;2023-03-21T07:23:36;80271.00;;;9.10
12007;BMP180;6062;47.294;12.182;2023-03-21T07:26:03;80273.00;;;9.20
12007;BMP180;6062;47.294;12.182;2023-03-21T07:28:29;80276.00;;;9.30
12007;BMP180;6062;47.294;12.182;2023-03-21T07:30:59;80275.00;;;9.20
12007;BMP180;6062;47.294;12.182;2023-03-21T07:33:26;80273.00;;;9.10
12007;BMP180;6062;47.294;12.182;2023-03-21T07:35:54;80274.00;;;9.10
12007;BMP180;6062;47.294;12.182;2023-03-21T07:38:22;80275.00;;;8.90
12007;BMP180;6062;47.294;12.182;2023-03-21T07:40:49;80277.00;;;8.80
12007;BMP180;6062;47.294;12.182;2023-03-21T07:43:16;80281.00;;;8.80
12007;BMP180;6062;47.294;12.182;2023-03-21T07:45:43;80275.00;;;8.90
12007;BMP180;6062;47.294;12.182;2023-03-21T07:48:10;80281.00;;;8.90
12007;BMP180;6062;47.294;12.182;2023-03-21T07:50:38;80280.00;;;9.10
12007;BMP180;6062;47.294;12.182;2023-03-21T07:53:04;80283.00;;;9.20
12007;BMP180;6062;47.294;12.182;2023-03-21T07:55:30;80279.00;;;9.30
12007;BMP180;6062;47.294;12.182;2023-03-21T07:58:00;80280.00;;;9.30
12007;BMP180;6062;47.294;12.182;2023-03-21T08:00:26;80288.00;;;9.40
12007;BMP180;6062;47.294;12.182;2023-03-21T08:02:54;80286.00;;;9.60
12007;BMP180;6062;47.294;12.182;2023-03-21T08:05:29;80283.00;;;9.80
12007;BMP180;6062;47.294;12.182;2023-03-21T08:07:56;80288.00;;;10.00
12007;BMP180;6062;47.294;12.182;2023-03-21T08:10:22;80286.00;;;10.10
12007;BMP180;6062;47.294;12.182;2023-03-21T08:12:48;80287.00;;;10.30
12007;BMP180;6062;47.294;12.182;2023-03-21T08:15:14;80294.00;;;10.40
12007;BMP180;6062;47.294;12.182;2023-03-21T08:17:41;80293.00;;;10.50
12007;BMP180;6062;47.294;12.182;2023-03-21T08:20:13;80295.00;;;10.70
12007;BMP180;6062;47.294;12.182;2023-03-21T08:22:41;80300.00;;;10.90
12007;BMP180;6062;47.294;12.182;2023-03-21T08:25:10;80302.00;;;11.10
12007;BMP180;6062;47.294;12.182;2023-03-21T08:27:42;80297.00;;;11.30
12007;BMP180;6062;47.294;12.182;2023-03-21T08:30:10;80297.00;;;11.40
12007;BMP180;6062;47.294;12.182;2023-03-21T08:32:38;80297.00;;;11.50
12007;BMP180;6062;47.294;12.182;2023-03-21T08:35:06;80300.00;;;11.50
12007;BMP180;6062;47.294;12.182;2023-03-21T08:37:37;80301.00;;;11.50
12007;BMP180;6062;47.294;12.182;2023-03-21T08:40:11;80302.00;;;11.60
12007;BMP180;6062;47.294;12.182;2023-03-21T08:42:39;80305.00;;;11.70
12007;BMP180;6062;47.294;12.182;2023-03-21T08:45:06;80301.00;;;11.80
12007;BMP180;6062;47.294;12.182;2023-03-21T08:47:33;80293.00;;;12.00
12007;BMP180;6062;47.294;12.182;2023-03-21T08:49:58;80305.00;;;12.10
12007;BMP180;6062;47.294;12.182;2023-03-21T08:52:25;80299.00;;;12.20
12007;BMP180;6062;47.294;12.182;2023-03-21T08:54:52;80308.00;;;12.30
12007;BMP180;6062;47.294;12.182;2023-03-21T08:57:18;80310.00;;;12.40
12007;BMP180;6062;47.294;12.182;2023-03-21T08:59:44;80304.00;;;12.50
12007;BMP180;6062;47.294;12.182;2023-03-21T09:02:14;80304.00;;;12.60
12007;BMP180;6062;47.294;12.182;2023-03-21T09:04:40;80313.00;;;12.70
12007;BMP180;6062;47.294;12.182;2023-03-21T09:07:08;80310.00;;;12.90
12007;BMP180;6062;47.294;12.182;2023-03-21T09:09:35;80306.00;;;13.00
12007;BMP180;6062;47.294;12.182;2023-03-21T09:12:02;80306.00;;;13.20
12007;BMP180;6062;47.294;12.182;2023-03-21T09:14:28;80302.00;;;13.30
12007;BMP180;6062;47.294;12.182;2023-03-21T09:16:53;80306.00;;;13.30
12007;BMP180;6062;47.294;12.182;2023-03-21T09:19:19;80302.00;;;13.40
12007;BMP180;6062;47.294;12.182;2023-03-21T09:21:46;80316.00;;;13.40
12007;BMP180;6062;47.294;12.182;2023-03-21T09:24:12;80309.00;;;13.40
12007;BMP180;6062;47.294;12.182;2023-03-21T09:26:38;80308.00;;;13.50
12007;BMP180;6062;47.294;12.182;2023-03-21T09:29:04;80306.00;;;13.60
12007;BMP180;6062;47.294;12.182;2023-03-21T09:31:31;80311.00;;;13.70
12007;BMP180;6062;47.294;12.182;2023-03-21T09:33:57;80299.00;;;13.80
12007;BMP180;6062;47.294;12.182;2023-03-21T09:36:24;80311.00;;;14.00
12007;BMP180;6062;47.294;12.182;2023-03-21T09:38:52;80306.00;;;14.30
12007;BMP180;6062;47.294;12.182;2023-03-21T09:44:26;80317.00;;;14.70
12007;BMP180;6062;47.294;12.182;2023-03-21T09:47:26;80308.00;;;14.90
12007;BMP180;6062;47.294;12.182;2023-03-21T09:50:09;80310.00;;;15.00
12007;BMP180;6062;47.294;12.182;2023-03-21T09:52:45;80306.00;;;15.10
12007;BMP180;6062;47.294;12.182;2023-03-21T09:55:23;80307.00;;;15.10
12007;BMP180;6062;47.294;12.182;2023-03-21T09:58:04;80306.00;;;15.10
12007;BMP180;6062;47.294;12.182;2023-03-21T10:00:38;80303.00;;;15.20
12007;BMP180;6062;47.294;12.182;2023-03-21T10:03:23;80299.00;;;15.10
12007;BMP180;6062;47.294;12.182;2023-03-21T10:05:55;80301.00;;;15.00
12007;BMP180;6062;47.294;12.182;2023-03-21T10:08:33;80297.00;;;15.00
12007;BMP180;6062;47.294;12.182;2023-03-21T10:11:14;80293.00;;;15.10
12007;BMP180;6062;47.294;12.182;2023-03-21T10:13:55;80299.00;;;15.30
12007;BMP180;6062;47.294;12.182;2023-03-21T10:16:33;80291.00;;;15.60
12007;BMP180;6062;47.294;12.182;2023-03-21T10:19:09;80291.00;;;16.00
12007;BMP180;6062;47.294;12.182;2023-03-21T10:21:39;80298.00;;;16.30
12007;BMP180;6062;47.294;12.182;2023-03-21T10:24:15;80298.00;;;16.70
12007;BMP180;6062;47.294;12.182;2023-03-21T10:26:43;80295.00;;;17.20
12007;BMP180;6062;47.294;12.182;2023-03-21T10:29:14;80292.00;;;17.60
12007;BMP180;6062;47.294;12.182;2023-03-21T10:31:42;80294.00;;;18.00
12007;BMP180;6062;47.294;12.182;2023-03-21T10:34:41;80292.00;;;18.50
12007;BMP180;6062;47.294;12.182;2023-03-21T10:37:07;80291.00;;;18.80
12007;BMP180;6062;47.294;12.182;2023-03-21T10:39:39;80287.00;;;19.10
12007;BMP180;6062;47.294;12.182;2023-03-21T10:42:31;80298.00;;;19.30
12007;BMP180;6062;47.294;12.182;2023-03-21T10:44:58;80288.00;;;19.40
12007;BMP180;6062;47.294;12.182;2023-03-21T10:47:31;80292.00;;;19.50
12007;BMP180;6062;47.294;12.182;2023-03-21T10:50:04;80294.00;;;19.50
12007;BMP180;6062;47.294;12.182;2023-03-21T10:52:32;80293.00;;;19.50
12007;BMP180;6062;47.294;12.182;2023-03-21T10:55:34;80294.00;;;19.50
12007;BMP180;6062;47.294;12.182;2023-03-21T10:58:13;80300.00;;;19.50
12007;BMP180;6062;47.294;12.182;2023-03-21T11:00:45;80303.00;;;19.40
12007;BMP180;6062;47.294;12.182;2023-03-21T11:03:34;80307.00;;;19.40
12007;BMP180;6062;47.294;12.182;2023-03-21T11:06:31;80306.00;;;19.30
12007;BMP180;6062;47.294;12.182;2023-03-21T11:09:08;80301.00;;;19.30
12007;BMP180;6062;47.294;12.182;2023-03-21T11:11:47;80302.00;;;19.20
12007;BMP180;6062;47.294;12.182;2023-03-21T11:14:38;80299.00;;;19.10
12007;BMP180;6062;47.294;12.182;2023-03-21T11:17:34;80300.00;;;19.10
12007;BMP180;6062;47.294;12.182;2023-03-21T11:20:04;80300.00;;;19.00
12007;BMP180;6062;47.294;12.182;2023-03-21T11:22:42;80300.00;;;19.00
12007;BMP180;6062;47.294;12.182;2023-03-21T11:25:36;80304.00;;;18.90
12007;BMP180;6062;47.294;12.182;2023-03-21T11:28:14;80296.00;;;18.70
12007;BMP180;6062;47.294;12.182;2023-03-21T11:30:52;80300.00;;;18.70
12007;BMP180;6062;47.294;12.182;2023-03-21T11:33:22;80300.00;;;18.70
12007;BMP180;6062;47.294;12.182;2023-03-21T11:36:23;80299.00;;;18.70
12007;BMP180;6062;47.294;12.182;2023-03-21T11:39:17;80301.00;;;18.70
12007;BMP180;6062;47.294;12.182;2023-03-21T11:41:40;80304.00;;;18.70
12007;BMP180;6062;47.294;12.182;2023-03-21T11:44:28;80291.00;;;18.70
12007;BMP180;6062;47.294;12.182;2023-03-21T11:46:54;80287.00;;;18.70
12007;BMP180;6062;47.294;12.182;2023-03-21T11:49:22;80290.00;;;18.70
12007;BMP180;6062;47.294;12.182;2023-03-21T11:52:24;80285.00;;;18.70
12007;BMP180;6062;47.294;12.182;2023-03-21T11:55:23;80287.00;;;18.60
12007;BMP180;6062;47.294;12.182;2023-03-21T12:10:39;80277.00;;;18.40
12007;BMP180;6062;47.294;12.182;2023-03-21T12:19:38;80264.00;;;18.40
12007;BMP180;6062;47.294;12.182;2023-03-21T12:24:50;80265.00;;;18.30
12007;BMP180;6062;47.294;12.182;2023-03-21T12:33:13;80259.00;;;18.20
12007;BMP180;6062;47.294;12.182;2023-03-21T12:36:19;80259.00;;;18.20
12007;BMP180;6062;47.294;12.182;2023-03-21T12:39:09;80261.00;;;18.30
12007;BMP180;6062;47.294;12.182;2023-03-21T12:41:44;80256.00;;;18.30
12007;BMP180;6062;47.294;12.182;2023-03-21T12:44:16;80252.00;;;18.30
12007;BMP180;6062;47.294;12.182;2023-03-21T12:49:42;80253.00;;;18.50
12007;BMP180;6062;47.294;12.182;2023-03-21T12:52:34;80249.00;;;18.50
12007;BMP180;6062;47.294;12.182;2023-03-21T12:55:27;80252.00;;;18.50
12007;BMP180;6062;47.294;12.182;2023-03-21T13:03:40;80253.00;;;18.50
12007;BMP180;6062;47.294;12.182;2023-03-21T13:06:19;80249.00;;;18.40
12007;BMP180;6062;47.294;12.182;2023-03-21T13:09:06;80253.00;;;18.40
12007;BMP180;6062;47.294;12.182;2023-03-21T13:11:34;80251.00;;;18.30
12007;BMP180;6062;47.294;12.182;2023-03-21T13:14:07;80239.00;;;18.30
12007;BMP180;6062;47.294;12.182;2023-03-21T13:16:51;80244.00;;;18.20
12007;BMP180;6062;47.294;12.182;2023-03-21T13:19:49;80245.00;;;18.10
12007;BMP180;6062;47.294;12.182;2023-03-21T13:22:30;80246.00;;;18.10
12007;BMP180;6062;47.294;12.182;2023-03-21T13:25:25;80238.00;;;18.00
12007;BMP180;6062;47.294;12.182;2023-03-21T13:28:00;80244.00;;;17.90
12007;BMP180;6062;47.294;12.182;2023-03-21T13:30:28;80236.00;;;17.80
12007;BMP180;6062;47.294;12.182;2023-03-21T13:33:11;80239.00;;;17.70
12007;BMP180;6062;47.294;12.182;2023-03-21T13:35:40;80240.00;;;17.50
12007;BMP180;6062;47.294;12.182;2023-03-21T13:38:19;80238.00;;;17.40
12007;BMP180;6062;47.294;12.182;2023-03-21T13:41:17;80238.00;;;17.30
12007;BMP180;6062;47.294;12.182;2023-03-21T13:51:50;80230.00;;;17.00
12007;BMP180;6062;47.294;12.182;2023-03-21T13:57:05;80227.00;;;16.90
12007;BMP180;6062;47.294;12.182;2023-03-21T13:59:36;80233.00;;;16.80
12007;BMP180;6062;47.294;12.182;2023-03-21T14:04:39;80229.00;;;16.50
12007;BMP180;6062;47.294;12.182;2023-03-21T14:07:16;80221.00;;;16.40
12007;BMP180;6062;47.294;12.182;2023-03-21T14:09:52;80224.00;;;16.30
12007;BMP180;6062;47.294;12.182;2023-03-21T14:12:27;80219.00;;;16.20
12007;BMP180;6062;47.294;12.182;2023-03-21T14:15:04;80225.00;;;16.20
12007;BMP180;6062;47.294;12.182;2023-03-21T14:17:33;80218.00;;;16.10
12007;BMP180;6062;47.294;12.182;2023-03-21T14:20:11;80227.00;;;16.10
12007;BMP180;6062;47.294;12.182;2023-03-21T14:22:41;80228.00;;;15.90
12007;BMP180;6062;47.294;12.182;2023-03-21T14:25:12;80232.00;;;15.80
12007;BMP180;6062;47.294;12.182;2023-03-21T14:27:44;80224.00;;;15.60
12007;BMP180;6062;47.294;12.182;2023-03-21T14:30:27;80220.00;;;15.40
12007;BMP180;6062;47.294;12.182;2023-03-21T14:33:03;80212.00;;;15.30
12007;BMP180;6062;47.294;12.182;2023-03-21T14:35:32;80217.00;;;15.20
12007;BMP180;6062;47.294;12.182;2023-03-21T14:38:06;80212.00;;;15.10
12007;BMP180;6062;47.294;12.182;2023-03-21T14:40:34;80219.00;;;15.00
12007;BMP180;6062;47.294;12.182;2023-03-21T14:43:05;80214.00;;;14.90
12007;BMP180;6062;47.294;12.182;2023-03-21T14:45:34;80209.00;;;14.90
12007;BMP180;6062;47.294;12.182;2023-03-21T14:48:09;80213.00;;;14.80
12007;BMP180;6062;47.294;12.182;2023-03-21T14:50:53;80202.00;;;14.70
12007;BMP180;6062;47.294;12.182;2023-03-21T14:56:03;80198.00;;;14.60
12007;BMP180;6062;47.294;12.182;2023-03-21T14:58:31;80200.00;;;14.50
12007;BMP180;6062;47.294;12.182;2023-03-21T15:01:04;80197.00;;;14.50
12007;BMP180;6062;47.294;12.182;2023-03-21T15:03:31;80199.00;;;14.40
12007;BMP180;6062;47.294;12.182;2023-03-21T15:05:58;80191.00;;;14.40
12007;BMP180;6062;47.294;12.182;2023-03-21T15:08:27;80196.00;;;14.40
12007;BMP180;6062;47.294;12.182;2023-03-21T15:11:11;80191.00;;;14.40
12007;BMP180;6062;47.294;12.182;2023-03-21T15:13:46;80194.00;;;14.40
12007;BMP180;6062;47.294;12.182;2023-03-21T15:16:15;80192.00;;;14.30
12007;BMP180;6062;47.294;12.182;2023-03-21T15:18:42;80192.00;;;14.30
12007;BMP180;6062;47.294;12.182;2023-03-21T15:21:20;80192.00;;;14.30
12007;BMP180;6062;47.294;12.182;2023-03-21T15:23:52;80195.00;;;14.30
12007;BMP180;6062;47.294;12.182;2023-03-21T15:26:23;80195.00;;;14.30
12007;BMP180;6062;47.294;12.182;2023-03-21T15:28:57;80198.00;;;14.20
12007;BMP180;6062;47.294;12.182;2023-03-21T15:31:46;80189.00;;;14.10
12007;BMP180;6062;47.294;12.182;2023-03-21T15:34:26;80195.00;;;14.10
12007;BMP180;6062;47.294;12.182;2023-03-21T15:37:12;80198.00;;;14.00
12007;BMP180;6062;47.294;12.182;2023-03-21T15:39:40;80197.00;;;14.00
12007;BMP180;6062;47.294;12.182;2023-03-21T15:44:56;80191.00;;;13.80
12007;BMP180;6062;47.294;12.182;2023-03-21T15:50:25;80194.00;;;13.60
12007;BMP180;6062;47.294;12.182;2023-03-21T15:52:53;80198.00;;;13.50
12007;BMP180;6062;47.294;12.182;2023-03-21T15:55:42;80196.00;;;13.40
12007;BMP180;6062;47.294;12.182;2023-03-21T15:58:17;80192.00;;;13.30
12007;BMP180;6062;47.294;12.182;2023-03-21T16:00:53;80191.00;;;13.20
12007;BMP180;6062;47.294;12.182;2023-03-21T16:03:29;80194.00;;;13.00
12007;BMP180;6062;47.294;12.182;2023-03-21T16:09:02;80192.00;;;12.80
12007;BMP180;6062;47.294;12.182;2023-03-21T16:11:47;80187.00;;;12.70
12007;BMP180;6062;47.294;12.182;2023-03-21T16:14:13;80180.00;;;12.70
12007;BMP180;6062;47.294;12.182;2023-03-21T16:16:39;80182.00;;;12.60